EXS28J EGKK-LEIB
Flight info
| Callsign | EXS28J |
|---|---|
| Flight time | N/A |
| Altitude | 35000 |
| Route | SFD Y47 DRAKE L151 SITET UN859 SOPIL DCT BALAN DCT EVPOK DCT NARAK DCT GAI DCT LOMRA DCT ROCAN/N0436F310 DCT PUMAL DCT XEPLA DCT BCN DCT CORDA |
| Aircraft | B738/M-SABDFGRVYL/LB2 |
Departure
| Time | 2026-05-07 13:17 |
|---|---|
| Airport | London Gatwick Airport (EGKK) |
Arrival
| Time | N/A |
|---|---|
| Airport | Ibiza Airport (LEIB) |
| Time | Latitude | Longitude | Altitude | Speed | Heading |
|---|---|---|---|---|---|
| 2026-05-07 12:56 | 51.15530 | -0.17167 | 191 ft | 0 kts | 132° |
| 2026-05-07 13:05 | 51.15532 | -0.17170 | 191 ft | 1 kts | 133° |
| 2026-05-07 13:06 | 51.15540 | -0.17183 | 191 ft | 2 kts | 133° |
| 2026-05-07 13:06 | 51.15549 | -0.17199 | 192 ft | 1 kts | 140° |
| 2026-05-07 13:06 | 51.15554 | -0.17206 | 192 ft | 0 kts | 141° |
| 2026-05-07 13:06 | 51.15559 | -0.17212 | 192 ft | 2 kts | 142° |
| 2026-05-07 13:07 | 51.15574 | -0.17226 | 193 ft | 3 kts | 158° |
| 2026-05-07 13:07 | 51.15601 | -0.17231 | 194 ft | 4 kts | 199° |
| 2026-05-07 13:07 | 51.15612 | -0.17221 | 194 ft | 0 kts | 217° |
| 2026-05-07 13:07 | 51.15617 | -0.17215 | 194 ft | 1 kts | 236° |
| 2026-05-07 13:08 | 51.15618 | -0.17214 | 194 ft | 0 kts | 251° |
| 2026-05-07 13:10 | 51.15616 | -0.17221 | 194 ft | 1 kts | 252° |
| 2026-05-07 13:10 | 51.15610 | -0.17252 | 194 ft | 3 kts | 253° |
| 2026-05-07 13:10 | 51.15604 | -0.17290 | 194 ft | 3 kts | 257° |
| 2026-05-07 13:10 | 51.15593 | -0.17361 | 195 ft | 9 kts | 256° |
| 2026-05-07 13:11 | 51.15561 | -0.17451 | 194 ft | 9 kts | 221° |
| 2026-05-07 13:11 | 51.15532 | -0.17541 | 194 ft | 9 kts | 258° |
| 2026-05-07 13:11 | 51.15512 | -0.17689 | 196 ft | 20 kts | 258° |
| 2026-05-07 13:11 | 51.15477 | -0.17939 | 193 ft | 23 kts | 258° |
| 2026-05-07 13:12 | 51.15445 | -0.18175 | 193 ft | 16 kts | 258° |
| 2026-05-07 13:12 | 51.15407 | -0.18280 | 193 ft | 10 kts | 186° |
| 2026-05-07 13:12 | 51.15332 | -0.18259 | 193 ft | 14 kts | 168° |
| 2026-05-07 13:12 | 51.15223 | -0.18224 | 193 ft | 10 kts | 179° |
| 2026-05-07 13:13 | 51.15182 | -0.18288 | 195 ft | 8 kts | 257° |
| 2026-05-07 13:13 | 51.15161 | -0.18463 | 196 ft | 25 kts | 259° |
| 2026-05-07 13:13 | 51.15122 | -0.18771 | 196 ft | 28 kts | 258° |
| 2026-05-07 13:13 | 51.15082 | -0.19067 | 195 ft | 25 kts | 258° |
| 2026-05-07 13:14 | 51.15052 | -0.19248 | 195 ft | 11 kts | 231° |
| 2026-05-07 13:14 | 51.14981 | -0.19268 | 194 ft | 9 kts | 202° |
| 2026-05-07 13:14 | 51.14943 | -0.19418 | 193 ft | 23 kts | 258° |
| 2026-05-07 13:14 | 51.14897 | -0.19753 | 194 ft | 36 kts | 257° |
| 2026-05-07 13:15 | 51.14845 | -0.20128 | 196 ft | 34 kts | 258° |
| 2026-05-07 13:15 | 51.14794 | -0.20490 | 196 ft | 32 kts | 258° |
| 2026-05-07 13:15 | 51.14757 | -0.20761 | 196 ft | 12 kts | 258° |
| 2026-05-07 13:15 | 51.14748 | -0.20833 | 196 ft | 6 kts | 259° |
| 2026-05-07 13:16 | 51.14741 | -0.20888 | 197 ft | 3 kts | 259° |
| 2026-05-07 13:16 | 51.14735 | -0.20930 | 198 ft | 6 kts | 249° |
| 2026-05-07 13:16 | 51.14667 | -0.20968 | 196 ft | 16 kts | 167° |
| 2026-05-07 13:16 | 51.14571 | -0.20858 | 196 ft | 17 kts | 105° |
| 2026-05-07 13:17 | 51.14601 | -0.20570 | 196 ft | 54 kts | 77° |
| 2026-05-07 13:17 | 51.14724 | -0.19682 | 193 ft | 119 kts | 78° |
| 2026-05-07 13:17 | 51.14956 | -0.18012 | 269 ft | 177 kts | 77° |
| 2026-05-07 13:17 | 51.15210 | -0.16205 | 1250 ft | 170 kts | 78° |
| 2026-05-07 13:18 | 51.15432 | -0.14591 | 1912 ft | 177 kts | 78° |
| 2026-05-07 13:18 | 51.15713 | -0.12523 | 2499 ft | 188 kts | 78° |
| 2026-05-07 13:18 | 51.15976 | -0.10420 | 3019 ft | 202 kts | 83° |
| 2026-05-07 13:18 | 51.15838 | -0.08121 | 3478 ft | 219 kts | 112° |
| 2026-05-07 13:19 | 51.14925 | -0.06156 | 3985 ft | 235 kts | 140° |
| 2026-05-07 13:19 | 51.13477 | -0.04850 | 4547 ft | 251 kts | 161° |
| 2026-05-07 13:19 | 51.11756 | -0.04154 | 5123 ft | 266 kts | 169° |
| 2026-05-07 13:19 | 51.09967 | -0.03619 | 5739 ft | 275 kts | 169° |
| 2026-05-07 13:20 | 51.08134 | -0.02967 | 5892 ft | 278 kts | 165° |
| 2026-05-07 13:20 | 51.06299 | -0.02132 | 5972 ft | 283 kts | 163° |
| 2026-05-07 13:20 | 51.04456 | -0.01224 | 6944 ft | 281 kts | 162° |
| 2026-05-07 13:20 | 51.02639 | -0.00330 | 7882 ft | 280 kts | 163° |
| 2026-05-07 13:21 | 51.00813 | 0.00554 | 8694 ft | 283 kts | 163° |
| 2026-05-07 13:21 | 50.98998 | 0.01419 | 9477 ft | 286 kts | 163° |
| 2026-05-07 13:21 | 50.97131 | 0.02302 | 10257 ft | 290 kts | 163° |
| 2026-05-07 13:21 | 50.95304 | 0.03164 | 11009 ft | 293 kts | 163° |
| 2026-05-07 13:22 | 50.93464 | 0.04031 | 11760 ft | 296 kts | 163° |
| 2026-05-07 13:22 | 50.91624 | 0.04897 | 12502 ft | 300 kts | 163° |
| 2026-05-07 13:22 | 50.89751 | 0.05779 | 13246 ft | 303 kts | 163° |
| 2026-05-07 13:22 | 50.87797 | 0.06697 | 14010 ft | 306 kts | 163° |
| 2026-05-07 13:23 | 50.85887 | 0.07595 | 14744 ft | 310 kts | 163° |
| 2026-05-07 13:23 | 50.84000 | 0.08480 | 15456 ft | 313 kts | 163° |
| 2026-05-07 13:23 | 50.82177 | 0.09333 | 16121 ft | 316 kts | 163° |
| 2026-05-07 13:23 | 50.80293 | 0.10215 | 16789 ft | 320 kts | 163° |
| 2026-05-07 13:24 | 50.78399 | 0.11058 | 17433 ft | 323 kts | 166° |
| 2026-05-07 13:24 | 50.76501 | 0.11610 | 18045 ft | 326 kts | 174° |
| 2026-05-07 13:24 | 50.74499 | 0.11604 | 18551 ft | 333 kts | 186° |
| 2026-05-07 13:24 | 50.72491 | 0.11120 | 18798 ft | 348 kts | 191° |
| 2026-05-07 13:25 | 50.70416 | 0.10401 | 19051 ft | 362 kts | 193° |
| 2026-05-07 13:25 | 50.68265 | 0.09580 | 19300 ft | 376 kts | 194° |
| 2026-05-07 13:25 | 50.66011 | 0.08710 | 19589 ft | 388 kts | 193° |
| 2026-05-07 13:25 | 50.63747 | 0.07847 | 20198 ft | 390 kts | 193° |
| 2026-05-07 13:26 | 50.61455 | 0.06984 | 20768 ft | 394 kts | 193° |
| 2026-05-07 13:26 | 50.59125 | 0.06116 | 21323 ft | 398 kts | 193° |
| 2026-05-07 13:26 | 50.56809 | 0.05263 | 21870 ft | 401 kts | 193° |
| 2026-05-07 13:26 | 50.54470 | 0.04408 | 22399 ft | 404 kts | 193° |
| 2026-05-07 13:27 | 50.52124 | 0.03555 | 22915 ft | 407 kts | 193° |
| 2026-05-07 13:27 | 50.49743 | 0.02694 | 23421 ft | 410 kts | 193° |
| 2026-05-07 13:27 | 50.47284 | 0.01808 | 23926 ft | 413 kts | 193° |
| 2026-05-07 13:27 | 50.44907 | 0.00954 | 24400 ft | 416 kts | 193° |
| 2026-05-07 13:28 | 50.42426 | 0.00064 | 24880 ft | 419 kts | 193° |
| 2026-05-07 13:28 | 50.40004 | -0.00804 | 25364 ft | 421 kts | 193° |
| 2026-05-07 13:28 | 50.37540 | -0.01685 | 25807 ft | 424 kts | 193° |
| 2026-05-07 13:28 | 50.35049 | -0.02575 | 26264 ft | 427 kts | 193° |
| 2026-05-07 13:29 | 50.32597 | -0.03450 | 26695 ft | 429 kts | 193° |
| 2026-05-07 13:29 | 50.30104 | -0.04338 | 27097 ft | 432 kts | 193° |
| 2026-05-07 13:29 | 50.27455 | -0.05266 | 27513 ft | 436 kts | 192° |
| 2026-05-07 13:29 | 50.25404 | -0.05853 | 27861 ft | 437 kts | 188° |
| 2026-05-07 13:30 | 50.21427 | -0.06194 | 28439 ft | 441 kts | 177° |
| 2026-05-07 13:30 | 50.18798 | -0.05667 | 28817 ft | 444 kts | 168° |
| 2026-05-07 13:30 | 50.15185 | -0.03972 | 29334 ft | 448 kts | 159° |
| 2026-05-07 13:31 | 50.12007 | -0.01911 | 29788 ft | 451 kts | 156° |
| 2026-05-07 13:31 | 50.09037 | -0.00007 | 30217 ft | 453 kts | 160° |
| 2026-05-07 13:31 | 50.06356 | 0.01394 | 30818 ft | 450 kts | 163° |
| 2026-05-07 13:31 | 50.03921 | 0.02505 | 31252 ft | 449 kts | 164° |
| 2026-05-07 13:32 | 50.00927 | 0.03750 | 31777 ft | 448 kts | 165° |
| 2026-05-07 13:32 | 49.97954 | 0.04918 | 32278 ft | 447 kts | 166° |
| 2026-05-07 13:32 | 49.95001 | 0.06053 | 32759 ft | 446 kts | 166° |
| 2026-05-07 13:32 | 49.92029 | 0.07187 | 33230 ft | 445 kts | 166° |
| 2026-05-07 13:33 | 49.89076 | 0.08315 | 33685 ft | 444 kts | 166° |
| 2026-05-07 13:33 | 49.86045 | 0.09477 | 34137 ft | 443 kts | 166° |
| 2026-05-07 13:33 | 49.83041 | 0.10633 | 34576 ft | 442 kts | 166° |
| 2026-05-07 13:33 | 49.80135 | 0.11755 | 34949 ft | 442 kts | 166° |
| 2026-05-07 13:34 | 49.71463 | 0.15115 | 35000 ft | 442 kts | 166° |
| 2026-05-07 13:35 | 49.65376 | 0.17491 | 35001 ft | 440 kts | 165° |
| 2026-05-07 13:35 | 49.59230 | 0.19962 | 35001 ft | 441 kts | 165° |
| 2026-05-07 13:36 | 49.53146 | 0.22424 | 35001 ft | 441 kts | 165° |
| 2026-05-07 13:36 | 49.46978 | 0.24908 | 35001 ft | 441 kts | 165° |
| 2026-05-07 13:37 | 49.40752 | 0.27404 | 35000 ft | 441 kts | 165° |
| 2026-05-07 13:37 | 49.34558 | 0.29878 | 35000 ft | 441 kts | 165° |
| 2026-05-07 13:38 | 49.28413 | 0.32344 | 35000 ft | 441 kts | 165° |
| 2026-05-07 13:38 | 49.22401 | 0.34867 | 35000 ft | 441 kts | 164° |
| 2026-05-07 13:39 | 49.16421 | 0.37407 | 35000 ft | 441 kts | 164° |
| 2026-05-07 13:39 | 49.10387 | 0.39959 | 35000 ft | 441 kts | 164° |
| 2026-05-07 13:40 | 49.04308 | 0.42514 | 35000 ft | 441 kts | 164° |
| 2026-05-07 13:40 | 48.98278 | 0.45036 | 35000 ft | 441 kts | 164° |
| 2026-05-07 13:41 | 48.92258 | 0.47545 | 35000 ft | 440 kts | 164° |
| 2026-05-07 13:41 | 48.86307 | 0.50018 | 35000 ft | 441 kts | 164° |
| 2026-05-07 13:42 | 48.80701 | 0.52341 | 35000 ft | 441 kts | 164° |
| 2026-05-07 13:42 | 48.74714 | 0.54776 | 35000 ft | 441 kts | 165° |
| 2026-05-07 13:43 | 48.68521 | 0.57199 | 35000 ft | 441 kts | 165° |
| 2026-05-07 13:43 | 48.62399 | 0.59575 | 35000 ft | 441 kts | 165° |
| 2026-05-07 13:44 | 48.56285 | 0.61947 | 35000 ft | 441 kts | 165° |
| 2026-05-07 13:44 | 48.50256 | 0.64297 | 35000 ft | 441 kts | 165° |
| 2026-05-07 13:45 | 48.44251 | 0.66721 | 35000 ft | 441 kts | 165° |
| 2026-05-07 13:45 | 48.38209 | 0.69190 | 35000 ft | 441 kts | 165° |
| 2026-05-07 13:46 | 48.32211 | 0.71634 | 35000 ft | 441 kts | 165° |
| 2026-05-07 13:46 | 48.26189 | 0.74075 | 35000 ft | 441 kts | 165° |
| 2026-05-07 13:47 | 48.20406 | 0.76388 | 35000 ft | 441 kts | 165° |
| 2026-05-07 13:47 | 48.14434 | 0.78735 | 35000 ft | 441 kts | 165° |
| 2026-05-07 13:48 | 48.08451 | 0.81076 | 35000 ft | 441 kts | 165° |
| 2026-05-07 13:48 | 48.02471 | 0.83413 | 35000 ft | 441 kts | 165° |
| 2026-05-07 13:49 | 47.96558 | 0.85720 | 35001 ft | 441 kts | 165° |
| 2026-05-07 13:49 | 47.90781 | 0.87971 | 35000 ft | 441 kts | 165° |
| 2026-05-07 13:50 | 47.84748 | 0.90316 | 35000 ft | 441 kts | 165° |
| 2026-05-07 13:50 | 47.78905 | 0.92583 | 35001 ft | 441 kts | 165° |
| 2026-05-07 13:51 | 47.73068 | 0.94841 | 35001 ft | 441 kts | 165° |
| 2026-05-07 13:51 | 47.67243 | 0.97091 | 35001 ft | 441 kts | 165° |
| 2026-05-07 13:52 | 47.61417 | 0.99335 | 35000 ft | 441 kts | 165° |
| 2026-05-07 13:52 | 47.55568 | 1.01583 | 35000 ft | 441 kts | 165° |
| 2026-05-07 13:53 | 47.49674 | 1.03842 | 35000 ft | 441 kts | 165° |
| 2026-05-07 13:53 | 47.43822 | 1.05852 | 35000 ft | 441 kts | 170° |
| 2026-05-07 13:54 | 47.37788 | 1.06561 | 35001 ft | 441 kts | 179° |
| 2026-05-07 13:54 | 47.31786 | 1.06460 | 35001 ft | 441 kts | 181° |
| 2026-05-07 13:55 | 47.25727 | 1.06220 | 35000 ft | 441 kts | 181° |
| 2026-05-07 13:55 | 47.19682 | 1.05994 | 35000 ft | 441 kts | 181° |
| 2026-05-07 13:56 | 47.13668 | 1.05806 | 35000 ft | 441 kts | 181° |
| 2026-05-07 13:56 | 47.07646 | 1.05643 | 35000 ft | 441 kts | 181° |
| 2026-05-07 13:57 | 47.01611 | 1.05489 | 35000 ft | 441 kts | 181° |
| 2026-05-07 13:57 | 46.95547 | 1.05258 | 35000 ft | 440 kts | 181° |
| 2026-05-07 13:58 | 46.89514 | 1.04983 | 35000 ft | 440 kts | 182° |
| 2026-05-07 13:58 | 46.83447 | 1.04707 | 35000 ft | 440 kts | 181° |
| 2026-05-07 13:59 | 46.77367 | 1.04438 | 35000 ft | 440 kts | 181° |
| 2026-05-07 13:59 | 46.71223 | 1.04173 | 35000 ft | 440 kts | 181° |
| 2026-05-07 14:00 | 46.65115 | 1.03912 | 35000 ft | 440 kts | 181° |
| 2026-05-07 14:00 | 46.59076 | 1.03655 | 35000 ft | 440 kts | 181° |
| 2026-05-07 14:01 | 46.53058 | 1.03547 | 35000 ft | 440 kts | 178° |
| 2026-05-07 14:01 | 46.46927 | 1.04663 | 35001 ft | 440 kts | 168° |
| 2026-05-07 14:02 | 46.40979 | 1.06607 | 35000 ft | 440 kts | 166° |
| 2026-05-07 14:02 | 46.35036 | 1.08710 | 35000 ft | 440 kts | 166° |
| 2026-05-07 14:03 | 46.29175 | 1.10751 | 35000 ft | 440 kts | 166° |
| 2026-05-07 14:03 | 46.23268 | 1.12759 | 35000 ft | 440 kts | 167° |
| 2026-05-07 14:04 | 46.17386 | 1.14729 | 35000 ft | 440 kts | 167° |
| 2026-05-07 14:04 | 46.11476 | 1.16691 | 35000 ft | 440 kts | 167° |
| 2026-05-07 14:05 | 46.05615 | 1.18628 | 35000 ft | 440 kts | 167° |
| 2026-05-07 14:05 | 45.99707 | 1.20575 | 35000 ft | 440 kts | 167° |
| 2026-05-07 14:06 | 45.93835 | 1.22505 | 35000 ft | 440 kts | 167° |
| 2026-05-07 14:06 | 45.87999 | 1.24419 | 35000 ft | 440 kts | 167° |
| 2026-05-07 14:07 | 45.82067 | 1.26361 | 35000 ft | 440 kts | 167° |
| 2026-05-07 14:07 | 45.76117 | 1.28304 | 35000 ft | 440 kts | 167° |
| 2026-05-07 14:08 | 45.70206 | 1.30230 | 35000 ft | 440 kts | 167° |
| 2026-05-07 14:08 | 45.64299 | 1.32151 | 35000 ft | 440 kts | 167° |
| 2026-05-07 14:09 | 45.58373 | 1.34074 | 35000 ft | 440 kts | 167° |
| 2026-05-07 14:09 | 45.52441 | 1.35994 | 35000 ft | 440 kts | 167° |
| 2026-05-07 14:10 | 45.46496 | 1.37915 | 35000 ft | 440 kts | 167° |
| 2026-05-07 14:10 | 45.40570 | 1.39825 | 35000 ft | 440 kts | 167° |
| 2026-05-07 14:11 | 45.34629 | 1.41736 | 35000 ft | 440 kts | 167° |
| 2026-05-07 14:11 | 45.28698 | 1.43640 | 35000 ft | 440 kts | 167° |
| 2026-05-07 14:12 | 45.22738 | 1.45549 | 35000 ft | 439 kts | 167° |
| 2026-05-07 14:12 | 45.16841 | 1.47434 | 35000 ft | 439 kts | 167° |
| 2026-05-07 14:13 | 45.10915 | 1.49324 | 35000 ft | 439 kts | 167° |
| 2026-05-07 14:13 | 45.04955 | 1.51221 | 35000 ft | 439 kts | 167° |
| 2026-05-07 14:14 | 44.98999 | 1.53113 | 35000 ft | 439 kts | 167° |
| 2026-05-07 14:14 | 44.93074 | 1.54990 | 35000 ft | 439 kts | 167° |
| 2026-05-07 14:15 | 44.87139 | 1.56867 | 35000 ft | 439 kts | 167° |
| 2026-05-07 14:15 | 44.81110 | 1.58770 | 35000 ft | 439 kts | 167° |
| 2026-05-07 14:16 | 44.75145 | 1.60648 | 35000 ft | 439 kts | 167° |
| 2026-05-07 14:16 | 44.69215 | 1.62511 | 35000 ft | 439 kts | 167° |
| 2026-05-07 14:17 | 44.63264 | 1.64377 | 35000 ft | 439 kts | 167° |
| 2026-05-07 14:17 | 44.57304 | 1.66242 | 35000 ft | 439 kts | 167° |
| 2026-05-07 14:18 | 44.51320 | 1.68111 | 35000 ft | 439 kts | 167° |
| 2026-05-07 14:18 | 44.45345 | 1.69973 | 35000 ft | 439 kts | 167° |
| 2026-05-07 14:19 | 44.39387 | 1.71825 | 35000 ft | 439 kts | 167° |
| 2026-05-07 14:19 | 44.33452 | 1.73666 | 35000 ft | 439 kts | 167° |
| 2026-05-07 14:20 | 44.27455 | 1.75476 | 35000 ft | 439 kts | 169° |
| 2026-05-07 14:20 | 44.21430 | 1.76885 | 35000 ft | 439 kts | 171° |
| 2026-05-07 14:21 | 44.15390 | 1.78144 | 35000 ft | 439 kts | 172° |
| 2026-05-07 14:21 | 44.09398 | 1.79400 | 35000 ft | 439 kts | 171° |
| 2026-05-07 14:22 | 44.03359 | 1.80692 | 35000 ft | 439 kts | 171° |
| 2026-05-07 14:22 | 43.97343 | 1.81997 | 35000 ft | 439 kts | 171° |
| 2026-05-07 14:23 | 43.91251 | 1.83103 | 35001 ft | 439 kts | 175° |
| 2026-05-07 14:23 | 43.85167 | 1.83673 | 35001 ft | 439 kts | 176° |
| 2026-05-07 14:24 | 43.79178 | 1.84149 | 35001 ft | 439 kts | 176° |
| 2026-05-07 14:24 | 43.73169 | 1.84657 | 35001 ft | 439 kts | 176° |
| 2026-05-07 14:25 | 43.67090 | 1.85202 | 35001 ft | 439 kts | 176° |
| 2026-05-07 14:25 | 43.61084 | 1.85761 | 35001 ft | 439 kts | 176° |
| 2026-05-07 14:26 | 43.55026 | 1.86335 | 35001 ft | 439 kts | 176° |
| 2026-05-07 14:26 | 43.48994 | 1.86911 | 35000 ft | 439 kts | 176° |
| 2026-05-07 14:27 | 43.42965 | 1.87489 | 35000 ft | 439 kts | 176° |
| 2026-05-07 14:27 | 43.36908 | 1.88068 | 35000 ft | 439 kts | 176° |
| 2026-05-07 14:28 | 43.30893 | 1.88643 | 35000 ft | 439 kts | 176° |
| 2026-05-07 14:28 | 43.24819 | 1.89224 | 35000 ft | 439 kts | 176° |
| 2026-05-07 14:29 | 43.18776 | 1.89802 | 35000 ft | 439 kts | 176° |
| 2026-05-07 14:29 | 43.12736 | 1.90377 | 35000 ft | 439 kts | 176° |
| 2026-05-07 14:30 | 43.06689 | 1.90953 | 35000 ft | 439 kts | 176° |
| 2026-05-07 14:30 | 43.00667 | 1.91524 | 35000 ft | 439 kts | 176° |
| 2026-05-07 14:31 | 42.94631 | 1.92096 | 35000 ft | 439 kts | 176° |
| 2026-05-07 14:31 | 42.88593 | 1.92667 | 34999 ft | 439 kts | 176° |
| 2026-05-07 14:32 | 42.82921 | 1.93202 | 34999 ft | 439 kts | 176° |
| 2026-05-07 14:32 | 42.76991 | 1.93760 | 34999 ft | 439 kts | 176° |
| 2026-05-07 14:33 | 42.71077 | 1.94316 | 34999 ft | 439 kts | 176° |
| 2026-05-07 14:33 | 42.65161 | 1.94934 | 34998 ft | 439 kts | 174° |
| 2026-05-07 14:34 | 42.59317 | 1.96028 | 34999 ft | 439 kts | 171° |
| 2026-05-07 14:34 | 42.53500 | 1.97300 | 34999 ft | 439 kts | 171° |
| 2026-05-07 14:35 | 42.47613 | 1.98571 | 34999 ft | 439 kts | 171° |
| 2026-05-07 14:35 | 42.41759 | 1.99794 | 34999 ft | 439 kts | 171° |
| 2026-05-07 14:36 | 42.35928 | 2.00974 | 34999 ft | 439 kts | 172° |
| 2026-05-07 14:36 | 42.29992 | 2.01740 | 35000 ft | 439 kts | 176° |
| 2026-05-07 14:37 | 42.24191 | 2.02222 | 35000 ft | 439 kts | 176° |
| 2026-05-07 14:37 | 42.15881 | 2.02898 | 35000 ft | 439 kts | 176° |
| 2026-05-07 14:38 | 42.10471 | 2.03371 | 35000 ft | 439 kts | 176° |
| 2026-05-07 14:38 | 42.05003 | 2.03867 | 35000 ft | 439 kts | 176° |
| 2026-05-07 14:39 | 41.99241 | 2.04401 | 35000 ft | 439 kts | 176° |
| 2026-05-07 14:39 | 41.93403 | 2.04946 | 35000 ft | 439 kts | 176° |
| 2026-05-07 14:40 | 41.87565 | 2.05493 | 35000 ft | 439 kts | 176° |
| 2026-05-07 14:40 | 41.81715 | 2.06041 | 35000 ft | 439 kts | 176° |
| 2026-05-07 14:41 | 41.75979 | 2.06578 | 35000 ft | 438 kts | 176° |
| 2026-05-07 14:41 | 41.70226 | 2.07116 | 35000 ft | 438 kts | 176° |
| 2026-05-07 14:42 | 41.64630 | 2.07638 | 35000 ft | 438 kts | 176° |
| 2026-05-07 14:42 | 41.58806 | 2.08180 | 35000 ft | 438 kts | 176° |
| 2026-05-07 14:43 | 41.53000 | 2.08719 | 35001 ft | 438 kts | 176° |
| 2026-05-07 14:43 | 41.47236 | 2.09254 | 35001 ft | 438 kts | 176° |
| 2026-05-07 14:44 | 41.41510 | 2.09784 | 35001 ft | 438 kts | 176° |
| 2026-05-07 14:44 | 41.36011 | 2.10292 | 35001 ft | 438 kts | 176° |
| 2026-05-07 14:45 | 41.30364 | 2.10816 | 35001 ft | 438 kts | 175° |
| 2026-05-07 14:45 | 41.24771 | 2.11591 | 35001 ft | 438 kts | 173° |
| 2026-05-07 14:46 | 41.19259 | 2.12558 | 35001 ft | 438 kts | 172° |
| 2026-05-07 14:46 | 41.13750 | 2.13545 | 35001 ft | 438 kts | 172° |
| 2026-05-07 14:47 | 41.08230 | 2.14511 | 35001 ft | 438 kts | 172° |
| 2026-05-07 14:47 | 41.02694 | 2.15458 | 35001 ft | 438 kts | 172° |
| 2026-05-07 14:48 | 40.97205 | 2.16383 | 35001 ft | 438 kts | 173° |
| 2026-05-07 14:48 | 40.91746 | 2.17295 | 35001 ft | 438 kts | 173° |
| 2026-05-07 14:49 | 40.86051 | 2.18242 | 35001 ft | 438 kts | 173° |
| 2026-05-07 14:49 | 40.82447 | 2.18840 | 35001 ft | 438 kts | 173° |
| 2026-05-07 14:50 | 40.77227 | 2.19705 | 35001 ft | 438 kts | 173° |